Latest Coastal Weather Observations for Groote Eylandt Airport

IDD60701

Issued at 5:25 pm CST Wednesday 22 October 2014 (issued every 10 minutes, with the page automatically refreshed every 10 minutes)

About coastal observations | Map of coastal stations | Coastal observations for NT | Marine services | Other Formats
Station Details ID: 014518 Name: GROOTE EYLANDT AIRPORT Lat: -13.97 Lon: 136.46 Height: 13.7 m
Data from the previous 72 hours. | See also: Recent months at Groote Eylandt Airport
Date/Time
CST
Temp

°C
Wind Pressure Rain
since 9am
mm
Weather Cloud Vis
km
Sea
Height
m
Swell
Dir
 
Speed
knots
Gust
knots
hPa Trend Height
m
Period
s
Dir
22/05:00pm 31.6 ENE 8 13 1011.8 - 0.0 - - 10 - - - -
22/04:30pm 32.2 ENE 10 14 1011.7 - 0.0 - - 10 - - - -
22/04:00pm 32.3 ENE 9 13 1011.8 - 0.0 - - 10 - - - -
22/03:30pm 32.6 E 9 13 1011.8 - 0.0 - Partly cloudy 10 - - - -
22/03:00pm 33.8 ESE 5 9 1011.9 - 0.0 - - 10 - - - -
22/02:30pm 33.0 SE 6 11 1012.0 - 0.0 - - 10 - - - -
22/02:00pm 33.3 E 9 15 1012.2 - 0.0 - - 10 - - - -
22/01:30pm 33.7 E 10 17 1012.5 - 0.0 - - 10 - - - -
22/01:00pm 33.2 SE 7 14 1013.1 - 0.0 - - 10 - - - -
22/12:30pm 31.3 W 8 14 1013.6 - 0.0 - Partly cloudy 10 - - - -
22/12:00pm 33.0 ESE 6 11 1014.1 - 0.0 - - 10 - - - -
22/11:30am 33.1 ESE 6 13 1014.6 - 0.0 - - 10 - - - -
22/11:00am 33.8 ESE 6 13 1014.6 - 0.0 - - 10 - - - -
22/10:30am 33.7 ENE 7 13 1014.8 - 0.0 - - 10 - - - -
22/10:00am 33.1 E 13 21 1015.1 - 0.0 - - 10 - - - -
22/09:30am 32.7 E 7 11 1015.2 - 0.0 - - 10 - - - -
22/09:00am 30.4 NE 3 6 1015.2 - 0.0 - - 10 - - - -
22/08:30am 28.7 NE 2 4 1015.0 - 0.0 - - 10 - - - -
22/08:00am 25.9 NE 2 4 1014.8 - 0.0 - - 10 - - - -
22/07:30am 23.3 E 3 4 1014.6 - 0.0 - - 10 - - - -
22/07:23am 22.1 E 3 4 1014.4 - 0.0 - Partly cloudy 10 - - - -
22/07:17am 21.2 E 1 3 1014.4 - 0.0 - Partly cloudy 10 - - - -
22/07:00am 19.8 E 4 5 1014.1 - 0.0 - Cloudy 0.8 - - - -
22/06:30am 18.7 CALM 0 0 1013.8 - 0.0 - Cloudy 0.3 - - - -
22/06:00am 18.6 CALM 0 0 1013.6 - 0.0 - Partly cloudy 0.5 - - - -
22/05:55am 18.5 CALM 0 0 1013.6 - 0.0 - Partly cloudy 3 - - - -
22/05:54am 18.5 CALM 0 0 1013.6 - 0.0 - Partly cloudy 5 - - - -
22/05:30am 18.8 E 2 3 1013.3 - 0.0 - - 10 - - - -
22/05:00am 19.5 CALM 0 0 1013.2 - 0.0 - - 10 - - - -
22/04:30am 20.1 CALM 0 0 1013.0 - 0.0 - - 10 - - - -
22/04:00am 20.9 CALM 0 0 1012.9 - 0.0 - - 10 - - - -
22/03:30am 21.1 CALM 0 0 1012.9 - 0.0 - - 10 - - - -
22/03:00am 21.5 CALM 0 0 1013.0 - 0.0 - - 10 - - - -
22/02:30am 22.0 CALM 0 3 1013.1 - 0.0 - - 10 - - - -
22/02:00am 22.7 SSE 1 3 1013.3 - 0.0 - - 10 - - - -
22/01:30am 23.1 SSW 4 6 1013.6 - 0.0 - - 10 - - - -
22/01:00am 23.6 ESE 5 8 1013.7 - 0.0 - - 10 - - - -
22/12:30am 24.0 E 6 8 1013.9 - 0.0 - - 10 - - - -
22/12:00am 24.3 E 5 6 1014.3 - 0.0 - - 10 - - - -
 
Date/Time
CST
Temp

°C
Wind Pressure Rain
since 9am
mm
Weather Cloud Vis
km
Sea
Height
m
Swell
Dir
 
Speed
knots
Gust
knots
hPa Trend Height
m
Period
s
Dir
21/11:30pm 24.0 E 5 6 1014.6 - 0.0 - - 10 - - - -
21/11:00pm 24.5 E 5 6 1014.7 - 0.0 - - 10 - - - -
21/10:30pm 24.8 ENE 4 5 1014.9 - 0.0 - - 10 - - - -
21/10:00pm 25.3 E 4 5 1015.1 - 0.0 - - 10 - - - -
21/09:30pm 25.5 ESE 5 7 1014.9 - 0.0 - - 10 - - - -
21/09:00pm 25.5 E 5 6 1014.7 - 0.0 - - 10 - - - -
21/08:30pm 25.8 ESE 4 5 1014.6 - 0.0 - - 10 - - - -
21/08:00pm 26.5 ESE 5 7 1014.4 - 0.0 - - 10 - - - -
21/07:30pm 27.0 ENE 5 7 1014.2 - 0.0 - - 10 - - - -
21/07:00pm 27.6 E 7 10 1014.0 - 0.0 - - 10 - - - -
21/06:30pm 28.3 ENE 8 11 1013.8 - 0.0 - Partly cloudy 10 - - - -
21/06:00pm 29.4 ENE 7 11 1013.4 - 0.0 - Cloudy 10 - - - -
21/05:30pm 30.8 NW 6 9 1013.0 - 0.0 - Partly cloudy 10 - - - -
21/05:00pm 31.3 WNW 7 10 1012.9 - 0.0 - Partly cloudy 10 - - - -
21/04:30pm 31.4 W 6 9 1012.7 - 0.0 - Partly cloudy 10 - - - -
21/04:00pm 31.5 W 8 11 1012.7 - 0.0 - Partly cloudy 10 - - - -
21/03:30pm 31.9 W 7 9 1012.7 - 0.0 - - 10 - - - -
21/03:00pm 30.8 WSW 7 10 1013.0 - 0.0 - Partly cloudy 10 - - - -
21/02:30pm 30.8 SW 7 11 1013.1 - 0.0 - Partly cloudy 10 - - - -
21/02:00pm 31.6 W 10 14 1013.4 - 0.0 - Partly cloudy 10 - - - -
21/01:30pm 31.5 WSW 7 14 1013.5 - 0.0 - Partly cloudy 10 - - - -
21/01:00pm 31.0 WSW 8 15 1013.8 - 0.0 - - 10 - - - -
21/12:30pm 31.2 WSW 7 13 1014.4 - 0.0 - Partly cloudy 10 - - - -
21/12:00pm 30.3 SW 8 14 1015.0 - 0.0 - Mostly clear 10 - - - -
21/11:30am 31.1 WSW 9 14 1015.2 - 0.0 - - 10 - - - -
21/11:00am 31.0 W 9 12 1015.3 - 0.0 - - 10 - - - -
21/10:30am 32.6 ENE 4 8 1015.3 - 0.0 - - 10 - - - -
21/10:00am 32.5 ENE 8 13 1015.7 - 0.0 - - 10 - - - -
21/09:30am 31.0 ENE 10 15 1015.9 - 0.0 - - 10 - - - -
21/09:00am 30.4 NE 9 15 1016.0 - 0.0 - - 10 - - - -
21/08:30am 28.8 NNE 7 10 1015.9 - 0.0 - Partly cloudy 10 - - - -
21/08:00am 26.5 ENE 2 4 1015.8 - 0.0 - - 10 - - - -
21/07:30am 23.4 E 3 5 1015.5 - 0.0 - - 10 - - - -
21/07:00am 19.9 E 3 4 1015.0 - 0.0 - - 10 - - - -
21/06:30am 18.1 E 3 4 1014.6 - 0.0 - - 10 - - - -
21/06:00am 17.9 ENE 3 4 1014.4 - 0.0 - - 10 - - - -
21/05:30am 17.5 SE 2 4 1014.0 - 0.0 - - 10 - - - -
21/05:00am 17.8 ENE 1 5 1013.6 - 0.0 - - 10 - - - -
21/04:30am 17.9 E 3 4 1013.4 - 0.0 - - 10 - - - -
21/04:00am 17.9 CALM 0 0 1013.0 - 0.0 - - 10 - - - -
21/03:30am 18.1 E 3 4 1012.7 - 0.0 - - 10 - - - -
21/03:00am 18.5 E 3 4 1012.7 - 0.0 - - 10 - - - -
21/02:30am 19.3 E 4 5 1012.9 - 0.0 - - 10 - - - -
21/02:00am 19.2 CALM 0 0 1013.2 - 0.0 - - 8 - - - -
21/01:30am 20.6 NNE 1 3 1013.5 - 0.0 - - 10 - - - -
21/01:00am 20.4 ESE 3 4 1013.9 - 0.0 - - 9 - - - -
21/12:30am 21.1 E 3 4 1014.3 - 0.0 - - 10 - - - -
21/12:00am 22.2 CALM 0 0 1014.5 - 0.0 - - 10 - - - -
 
Date/Time
CST
Temp

°C
Wind Pressure Rain
since 9am
mm
Weather Cloud Vis
km
Sea
Height
m
Swell
Dir
 
Speed
knots
Gust
knots
hPa Trend Height
m
Period
s
Dir
20/11:30pm 23.0 ENE 4 7 1014.9 - 0.0 - - 10 - - - -
20/11:00pm 23.1 CALM 0 0 1015.4 - 0.0 - - 10 - - - -
20/10:30pm 23.4 CALM 0 0 1015.4 - 0.0 - - 10 - - - -
20/10:00pm 24.3 E 4 5 1015.3 - 0.0 - - 10 - - - -
20/09:30pm 24.5 ESE 4 6 1015.2 - 0.0 - - 10 - - - -
20/09:00pm 24.7 ESE 4 6 1014.9 - 0.0 - - 10 - - - -
20/08:30pm 25.0 ESE 4 5 1014.5 - 0.0 - - 10 - - - -
20/08:00pm 25.5 ESE 4 5 1014.1 - 0.0 - - 10 - - - -
20/07:30pm 26.3 ESE 5 7 1013.9 - 0.0 - - 10 - - - -
20/07:00pm 27.0 E 7 9 1013.4 - 0.0 - - 10 - - - -
20/06:30pm 27.7 E 9 12 1012.9 - 0.0 - - 10 - - - -
20/06:00pm 28.8 E 9 11 1012.5 - 0.0 - - 10 - - - -
20/05:30pm 29.5 E 9 11 1012.1 - 0.0 - - 10 - - - -
20/05:00pm 29.9 ENE 9 13 1011.9 - 0.0 - - 10 - - - -
20/04:30pm 30.3 ENE 8 13 1011.9 - 0.0 - - 10 - - - -
20/04:00pm 30.4 E 8 14 1012.0 - 0.0 - Partly cloudy 10 - - - -
20/03:30pm 30.8 E 10 14 1012.1 - 0.0 - Partly cloudy 10 - - - -
20/03:00pm 31.3 E 10 16 1012.1 - 0.0 - Mostly clear 10 - - - -
20/02:30pm 32.2 E 9 14 1012.2 - 0.0 - Partly cloudy 10 - - - -
20/02:00pm 31.2 ESE 9 13 1012.8 - 0.0 - Partly cloudy 10 - - - -
20/01:30pm 31.5 ESE 10 13 1013.4 - 0.0 - Partly cloudy 8 - - - -
20/01:00pm 31.6 ENE 7 15 1013.9 - 0.0 - Partly cloudy 10 - - - -
20/12:30pm 31.6 E 7 12 1014.4 - 0.0 - Partly cloudy 10 - - - -
20/12:00pm 30.9 SSE 7 11 1014.7 - 0.0 - - - - - - -
20/11:30am 32.1 ENE 11 16 1014.9 - 0.0 - Partly cloudy 10 - - - -
20/11:00am 31.8 NE 10 14 1014.9 - 0.0 - - 10 - - - -
20/10:30am 32.0 E 8 16 1014.9 - 0.0 - - 10 - - - -
20/10:00am 30.8 E 8 11 1015.6 - 0.0 - - 10 - - - -
20/09:30am 29.4 NE 10 13 1015.9 - 0.0 - - 10 - - - -
20/09:00am 28.8 ENE 8 11 1015.8 - 0.0 - - 10 - - - -
20/08:30am 27.3 NE 8 12 1015.6 - 0.0 - - 10 - - - -
20/08:00am 25.5 NE 4 7 1015.5 - 0.0 - - 10 - - - -
20/07:30am 22.1 CALM 0 0 1015.3 - 0.0 - - 10 - - - -
20/07:00am 20.1 ESE 1 3 1014.9 - 0.0 - - 10 - - - -
20/06:30am 18.4 CALM 0 0 1014.6 - 0.0 - - 9 - - - -
20/06:00am 17.9 CALM 0 0 1014.1 - 0.0 - - 10 - - - -
20/05:30am 17.9 ESE 1 3 1013.8 - 0.0 - - 10 - - - -
20/05:00am 19.5 NE 4 5 1013.5 - 0.0 - - 10 - - - -
20/04:30am 17.7 CALM 0 0 1012.8 - 0.0 - - 10 - - - -
20/04:00am 17.9 CALM 0 0 1012.5 - 0.0 - - 9 - - - -
20/03:30am 17.8 CALM 0 0 1012.4 - 0.0 - - 8 - - - -
20/03:00am 17.9 CALM 0 0 1012.5 - 0.0 - - 6 - - - -
20/02:30am 18.2 CALM 0 0 1012.8 - 0.0 - - 9 - - - -
20/02:00am 18.6 CALM 0 0 1013.1 - 0.0 - - 7 - - - -
20/01:30am 19.1 CALM 0 0 1013.5 - 0.0 - - 7 - - - -
20/01:00am 19.5 CALM 0 0 1013.9 - 0.0 - - 10 - - - -
20/12:30am 20.1 CALM 0 0 1014.4 - 0.0 - - 10 - - - -
20/12:00am 20.8 CALM 0 0 1014.9 - 0.0 - - 10 - - - -
 
Date/Time
CST
Temp

°C
Wind Pressure Rain
since 9am
mm
Weather Cloud Vis
km
Sea
Height
m
Swell
Dir
 
Speed
knots
Gust
knots
hPa Trend Height
m
Period
s
Dir
19/11:30pm 21.3 CALM 0 0 1015.2 - 0.0 - - 10 - - - -
19/11:00pm 22.4 CALM 0 2 1015.5 - 0.0 - - 10 - - - -
19/10:30pm 22.9 ESE 3 3 1015.7 - 0.0 - - 10 - - - -
19/10:00pm 23.2 ESE 3 4 1015.6 - 0.0 - - 10 - - - -
19/09:30pm 23.8 SE 4 5 1015.3 - 0.0 - - 10 - - - -
19/09:00pm 24.2 ESE 3 5 1015.0 - 0.0 - - 10 - - - -
19/08:30pm 25.1 ESE 4 5 1014.8 - 0.0 - - 10 - - - -
19/08:00pm 25.6 ESE 5 8 1014.3 - 0.0 - - 10 - - - -
19/07:30pm 26.2 E 6 8 1014.0 - 0.0 - - 10 - - - -
19/07:00pm 26.8 E 8 11 1013.6 - 0.0 - - 10 - - - -
19/06:30pm 27.7 E 9 11 1013.3 - 0.0 - - 10 - - - -
19/06:00pm 28.5 ESE 7 10 1012.9 - 0.0 - - 10 - - - -
19/05:30pm 29.3 E 9 13 1012.6 - 0.0 - - 10 - - - -

Other Formats:

Comma delimited format used in spreadsheet applications
http://www.bom.gov.au/fwo/IDD60701/IDD60701.94153.axf

JavaScript Object Notation format (JSON) in row-major order
http://www.bom.gov.au/fwo/IDD60701/IDD60701.94153.json